createdAt,value
2017-02-20T00:00:53.076Z,6.93
2017-02-20T00:01:53.771Z,6.95
2017-02-20T00:02:54.487Z,6.97
2017-02-20T00:03:55.190Z,6.96
2017-02-20T00:04:55.898Z,7.06
2017-02-20T00:05:56.582Z,6.92
2017-02-20T00:06:57.279Z,7.02
2017-02-20T00:07:57.968Z,6.96
2017-02-20T00:08:58.661Z,6.99
2017-02-20T00:09:59.367Z,6.95
2017-02-20T00:11:00.081Z,6.97
2017-02-20T00:12:00.787Z,6.96
2017-02-20T00:13:01.479Z,7.05
2017-02-20T00:14:02.190Z,7.02
2017-02-20T00:15:02.869Z,6.93
2017-02-20T00:16:03.573Z,6.95
2017-02-20T00:17:04.267Z,6.99
2017-02-20T00:18:04.940Z,6.95
2017-02-20T00:19:05.621Z,7.13
2017-02-20T00:20:06.346Z,7.02
2017-02-20T00:21:07.040Z,6.96
2017-02-20T00:22:07.775Z,6.97
2017-02-20T00:23:08.461Z,6.93
2017-02-20T00:24:09.250Z,6.97
2017-02-20T00:25:09.957Z,6.95
2017-02-20T00:26:10.657Z,6.96
2017-02-20T00:27:11.345Z,6.93
2017-02-20T00:28:12.050Z,6.89
2017-02-20T00:29:12.758Z,6.93
2017-02-20T00:30:13.462Z,6.93
2017-02-20T00:31:14.159Z,6.99
2017-02-20T00:32:14.873Z,6.96
2017-02-20T00:33:15.578Z,6.88
2017-02-20T00:34:16.274Z,6.96
2017-02-20T00:35:16.997Z,6.96
2017-02-20T00:36:17.694Z,6.99
2017-02-20T00:37:18.378Z,6.95
2017-02-20T00:38:19.096Z,6.95
2017-02-20T00:39:19.823Z,6.95
2017-02-20T00:40:20.532Z,6.96
2017-02-20T00:41:21.218Z,6.93
2017-02-20T00:42:21.937Z,6.96
2017-02-20T00:43:22.621Z,6.93
2017-02-20T00:44:23.355Z,6.96
2017-02-20T00:45:24.064Z,6.92
2017-02-20T00:46:24.744Z,7
2017-02-20T00:47:25.425Z,6.99
2017-02-20T00:48:26.139Z,7
2017-02-20T00:49:26.849Z,6.96
2017-02-20T00:50:27.554Z,6.96
2017-02-20T00:51:28.272Z,6.95
2017-02-20T00:52:28.972Z,6.93
2017-02-20T00:53:29.648Z,6.96
2017-02-20T00:54:30.340Z,6.97
2017-02-20T00:55:31.039Z,6.97
2017-02-20T00:56:31.739Z,6.92
2017-02-20T00:57:32.434Z,6.96
2017-02-20T00:58:33.145Z,6.97
2017-02-20T00:59:33.882Z,6.96
2017-02-20T01:00:34.559Z,6.96
2017-02-20T01:01:35.272Z,6.89
2017-02-20T01:02:35.971Z,6.97
2017-02-20T01:03:36.667Z,6.93
2017-02-20T01:04:37.390Z,6.97
2017-02-20T01:05:38.071Z,6.93
2017-02-20T01:06:38.744Z,6.99
2017-02-20T01:07:39.458Z,6.95
2017-02-20T01:08:40.143Z,6.92
2017-02-20T01:09:40.809Z,6.99
2017-02-20T01:10:41.584Z,6.95
2017-02-20T01:11:42.285Z,6.92
2017-02-20T01:12:42.987Z,6.97
2017-02-20T01:13:43.667Z,7
2017-02-20T01:14:44.349Z,6.99
2017-02-20T01:15:45.052Z,6.89
2017-02-20T01:16:45.723Z,6.96
2017-02-20T01:17:46.442Z,7.11
2017-02-20T01:18:47.146Z,6.89
2017-02-20T01:19:47.910Z,6.92
2017-02-20T01:20:48.651Z,7.05
2017-02-20T01:21:49.405Z,6.97
2017-02-20T01:22:50.114Z,6.93
2017-02-20T01:23:50.819Z,6.96
2017-02-20T01:24:51.505Z,6.97
2017-02-20T01:25:52.212Z,6.93
2017-02-20T01:26:52.908Z,6.95
2017-02-20T01:27:53.596Z,6.99
2017-02-20T01:28:54.291Z,6.95
2017-02-20T01:29:54.969Z,6.92
2017-02-20T01:30:55.663Z,6.96
2017-02-20T01:31:56.367Z,6.96
2017-02-20T01:32:57.070Z,6.96
2017-02-20T01:33:57.770Z,6.96
2017-02-20T01:34:58.471Z,6.96
2017-02-20T01:35:59.230Z,6.93
2017-02-20T01:36:59.908Z,6.99
2017-02-20T01:38:00.603Z,6.95
2017-02-20T01:39:01.306Z,6.92
2017-02-20T01:40:01.999Z,6.99
2017-02-20T01:41:02.672Z,7
2017-02-20T01:42:03.356Z,6.97
2017-02-20T01:43:04.044Z,6.96
2017-02-20T01:44:04.753Z,6.95
2017-02-20T01:45:05.498Z,6.96
2017-02-20T01:46:06.199Z,6.96
2017-02-20T01:47:06.913Z,6.99
2017-02-20T01:48:07.673Z,6.96
2017-02-20T01:49:08.361Z,7.02
2017-02-20T01:50:09.091Z,6.96
2017-02-20T01:51:09.817Z,6.92
2017-02-20T01:52:10.603Z,6.99
2017-02-20T01:53:11.334Z,7
2017-02-20T01:54:12.028Z,6.95
2017-02-20T01:55:12.736Z,7.03
2017-02-20T01:56:13.447Z,7.03
2017-02-20T01:57:14.188Z,7.05
2017-02-20T01:58:14.888Z,7.06
2017-02-20T01:59:15.644Z,7.05
2017-02-20T02:00:16.309Z,7.06
2017-02-20T02:01:17.007Z,7.06
2017-02-20T02:02:17.704Z,7.1
2017-02-20T02:03:18.407Z,6.95
2017-02-20T02:04:19.113Z,6.97
2017-02-20T02:05:19.824Z,7.06
2017-02-20T02:06:20.509Z,6.89
2017-02-20T02:07:23.737Z,6.97
2017-02-20T02:08:24.431Z,7.05
2017-02-20T02:09:25.126Z,7.03
2017-02-20T02:10:25.842Z,7.03
2017-02-20T02:11:26.567Z,7.07
2017-02-20T02:12:27.294Z,7.07
2017-02-20T02:13:28.003Z,7.02
2017-02-20T02:14:28.684Z,7.07
2017-02-20T02:15:29.402Z,7.06
2017-02-20T02:16:30.090Z,7.06
2017-02-20T02:17:30.795Z,7.06
2017-02-20T02:18:31.476Z,7.06
2017-02-20T02:19:32.192Z,7.06
2017-02-20T02:20:32.875Z,7.06
2017-02-20T02:21:33.597Z,7.07
2017-02-20T02:22:34.304Z,7.06
2017-02-20T02:23:35.006Z,7.1
2017-02-20T02:24:35.707Z,7.06
2017-02-20T02:25:36.408Z,7.13
2017-02-20T02:26:37.097Z,7.07
2017-02-20T02:27:37.799Z,7.1
2017-02-20T02:28:38.465Z,7.18
2017-02-20T02:29:39.140Z,7.15
2017-02-20T02:30:39.838Z,7.1
2017-02-20T02:31:40.537Z,7.11
2017-02-20T02:32:41.248Z,7.13
2017-02-20T02:33:41.953Z,7.15
2017-02-20T02:34:42.665Z,7.13
2017-02-20T02:35:43.348Z,7.2
2017-02-20T02:36:44.025Z,7.17
2017-02-20T02:37:44.721Z,7.1
2017-02-20T02:38:45.419Z,7.18
2017-02-20T02:39:46.122Z,7.18
2017-02-20T02:40:46.808Z,7.21
2017-02-20T02:41:47.560Z,7.15
2017-02-20T02:42:48.259Z,7.17
2017-02-20T02:43:48.962Z,7.21
2017-02-20T02:44:49.701Z,7.18
2017-02-20T02:45:50.388Z,7.15
2017-02-20T02:46:51.067Z,7.14
2017-02-20T02:47:51.786Z,7.14
2017-02-20T02:48:52.465Z,7.07
2017-02-20T02:49:53.151Z,7.11
2017-02-20T02:50:53.844Z,7.11
2017-02-20T02:51:54.544Z,7.15
2017-02-20T02:52:55.258Z,7.18
2017-02-20T02:53:55.965Z,7.07
2017-02-20T02:54:56.639Z,7.18
2017-02-20T02:55:57.309Z,7.13
2017-02-20T02:56:58.005Z,7.14
2017-02-20T02:57:58.699Z,7.07
2017-02-20T02:58:59.403Z,7.11
2017-02-20T03:00:00.117Z,7.06
2017-02-20T03:01:00.797Z,7.07
2017-02-20T03:02:01.495Z,7.07
2017-02-20T03:03:02.194Z,7.06
2017-02-20T03:04:02.901Z,7.07
2017-02-20T03:05:03.562Z,7.05
2017-02-20T03:06:04.251Z,7.11
2017-02-20T03:07:04.917Z,7.07
2017-02-20T03:08:05.599Z,7.15
2017-02-20T03:09:06.320Z,7.17
2017-02-20T03:10:07.038Z,7.2
2017-02-20T03:11:07.751Z,7.14
2017-02-20T03:12:08.442Z,7.14
2017-02-20T03:13:09.165Z,7.14
2017-02-20T03:14:09.841Z,7.13
2017-02-20T03:15:10.544Z,7.07
2017-02-20T03:16:11.228Z,7.13
2017-02-20T03:17:11.905Z,7.17
2017-02-20T03:18:12.635Z,7.15
2017-02-20T03:19:13.339Z,7.13
2017-02-20T03:20:14.019Z,7.21
2017-02-20T03:21:14.740Z,7.17
2017-02-20T03:22:15.411Z,7.18
2017-02-20T03:23:16.095Z,7.17
2017-02-20T03:24:16.792Z,7.15
2017-02-20T03:25:17.479Z,7.21
2017-02-20T03:26:18.158Z,7.23
2017-02-20T03:27:18.880Z,7.29
2017-02-20T03:28:19.598Z,7.14
2017-02-20T03:29:20.275Z,7.18
2017-02-20T03:30:20.966Z,7.15
2017-02-20T03:31:21.664Z,7.28
2017-02-20T03:32:22.355Z,7.15
2017-02-20T03:33:23.060Z,7.31
2017-02-20T03:34:23.745Z,7.25
2017-02-20T03:35:24.424Z,7.32
2017-02-20T03:36:25.136Z,7.29
2017-02-20T03:37:25.828Z,7.28
2017-02-20T03:38:26.528Z,7.28
2017-02-20T03:39:27.234Z,7.28
2017-02-20T03:40:27.908Z,7.32
2017-02-20T03:41:28.606Z,7.31
2017-02-20T03:42:29.304Z,7.33
2017-02-20T03:43:29.978Z,7.32
2017-02-20T03:44:30.685Z,7.32
2017-02-20T03:45:31.384Z,7.33
2017-02-20T03:46:32.065Z,7.29
2017-02-20T03:47:32.780Z,7.31
2017-02-20T03:48:33.463Z,7.25
2017-02-20T03:49:34.162Z,7.17
2017-02-20T03:50:34.851Z,7.23
2017-02-20T03:51:35.536Z,7.32
2017-02-20T03:52:36.243Z,7.15
2017-02-20T03:53:36.946Z,7.24
2017-02-20T03:54:37.640Z,7.21
2017-02-20T03:55:38.342Z,7.33
2017-02-20T03:56:39.029Z,7.28
2017-02-20T03:57:39.709Z,7.31
2017-02-20T03:58:40.405Z,7.28
2017-02-20T03:59:41.117Z,7.24
2017-02-20T04:00:41.791Z,7.24
2017-02-20T04:01:42.508Z,7.25
2017-02-20T04:02:43.225Z,7.24
2017-02-20T04:03:43.924Z,7.24
2017-02-20T04:04:44.602Z,7.24
2017-02-20T04:05:45.289Z,7.24
2017-02-20T04:06:45.998Z,7.25
2017-02-20T04:07:46.681Z,7.35
2017-02-20T04:08:47.401Z,7.25
2017-02-20T04:09:48.100Z,7.33
2017-02-20T04:10:48.790Z,7.35
2017-02-20T04:11:49.514Z,7.33
2017-02-20T04:12:50.202Z,7.32
2017-02-20T04:13:50.908Z,7.25
2017-02-20T04:14:51.616Z,7.29
2017-02-20T04:15:52.307Z,7.29
2017-02-20T04:16:52.992Z,7.29
2017-02-20T04:17:53.689Z,7.36
2017-02-20T04:18:54.373Z,7.38
2017-02-20T04:19:55.049Z,7.35
2017-02-20T04:20:55.718Z,7.29
2017-02-20T04:21:56.407Z,7.35
2017-02-20T04:22:57.082Z,7.42
2017-02-20T04:23:57.756Z,7.35
2017-02-20T04:24:58.426Z,7.29
2017-02-20T04:25:59.204Z,7.35
2017-02-20T04:26:59.869Z,7.35
2017-02-20T04:28:00.577Z,7.35
2017-02-20T04:29:01.246Z,7.42
2017-02-20T04:30:01.924Z,7.4
2017-02-20T04:31:02.630Z,7.39
2017-02-20T04:32:03.327Z,7.43
2017-02-20T04:33:04.004Z,7.45
2017-02-20T04:34:04.732Z,7.32
2017-02-20T04:35:05.444Z,7.33
2017-02-20T04:36:06.138Z,7.36
2017-02-20T04:37:06.836Z,7.42
2017-02-20T04:38:07.559Z,7.39
2017-02-20T04:39:08.259Z,7.35
2017-02-20T04:40:08.955Z,7.32
2017-02-20T04:41:09.644Z,7.43
2017-02-20T04:42:10.331Z,7.33
2017-02-20T04:43:11.021Z,7.36
2017-02-20T04:44:11.704Z,7.42
2017-02-20T04:45:12.426Z,7.38
2017-02-20T04:46:13.115Z,7.38
2017-02-20T04:47:13.801Z,7.42
2017-02-20T04:48:14.479Z,7.45
2017-02-20T04:49:15.221Z,7.45
2017-02-20T04:50:15.913Z,7.47
2017-02-20T04:51:16.596Z,7.47
2017-02-20T04:52:17.284Z,7.47
2017-02-20T04:53:17.991Z,7.56
2017-02-20T04:54:18.677Z,7.45
2017-02-20T04:55:19.381Z,7.42
2017-02-20T04:56:20.070Z,7.45
2017-02-20T04:57:20.761Z,7.47
2017-02-20T04:58:21.462Z,7.42
2017-02-20T04:59:22.155Z,7.45
2017-02-20T05:00:22.836Z,7.5
2017-02-20T05:01:23.538Z,7.5
2017-02-20T05:02:24.264Z,7.48
2017-02-20T05:03:24.967Z,7.43
2017-02-20T05:04:25.658Z,7.58
2017-02-20T05:05:26.345Z,7.61
2017-02-20T05:06:27.052Z,7.63
2017-02-20T05:07:27.734Z,7.66
2017-02-20T05:08:28.434Z,7.54
2017-02-20T05:09:29.153Z,7.54
2017-02-20T05:10:29.833Z,7.54
2017-02-20T05:11:30.542Z,7.56
2017-02-20T05:12:31.228Z,7.54
2017-02-20T05:13:31.903Z,7.63
2017-02-20T05:14:32.601Z,7.61
2017-02-20T05:15:33.289Z,7.61
2017-02-20T05:16:34.035Z,7.53
2017-02-20T05:17:34.764Z,7.45
2017-02-20T05:18:35.481Z,7.6
2017-02-20T05:19:36.203Z,7.54
2017-02-20T05:20:36.897Z,7.61
2017-02-20T05:21:37.608Z,7.54
2017-02-20T05:22:38.314Z,7.58
2017-02-20T05:23:39.019Z,7.63
2017-02-20T05:24:39.712Z,7.56
2017-02-20T05:25:40.446Z,7.66
2017-02-20T05:26:41.162Z,7.56
2017-02-20T05:27:41.857Z,7.53
2017-02-20T05:28:42.564Z,7.56
2017-02-20T05:29:43.240Z,7.6
2017-02-20T05:30:43.945Z,7.57
2017-02-20T05:31:44.631Z,7.6
2017-02-20T05:32:45.311Z,7.61
2017-02-20T05:33:46.051Z,7.56
2017-02-20T05:34:46.767Z,7.61
2017-02-20T05:35:47.468Z,7.61
2017-02-20T05:36:48.201Z,7.57
2017-02-20T05:37:48.928Z,7.69
2017-02-20T05:38:49.645Z,7.69
2017-02-20T05:39:50.321Z,7.63
2017-02-20T05:40:51.023Z,7.66
2017-02-20T05:41:51.712Z,7.67
2017-02-20T05:42:52.435Z,7.61
2017-02-20T05:43:53.140Z,7.63
2017-02-20T05:44:53.844Z,7.66
2017-02-20T05:45:54.557Z,7.7
2017-02-20T05:46:55.257Z,7.69
2017-02-20T05:47:55.954Z,7.67
2017-02-20T05:48:56.663Z,7.67
2017-02-20T05:49:57.381Z,7.63
2017-02-20T05:50:58.072Z,7.61
2017-02-20T05:51:58.781Z,7.63
2017-02-20T05:52:59.485Z,7.63
2017-02-20T05:54:00.187Z,7.61
2017-02-20T05:55:00.964Z,7.61
2017-02-20T05:56:01.679Z,7.58
2017-02-20T05:57:02.378Z,7.58
2017-02-20T05:58:03.081Z,7.61
2017-02-20T05:59:03.777Z,7.67
2017-02-20T06:00:04.498Z,7.66
2017-02-20T06:01:05.210Z,7.75
2017-02-20T06:02:05.924Z,7.77
2017-02-20T06:03:06.625Z,7.76
2017-02-20T06:04:07.328Z,7.69
2017-02-20T06:05:08.057Z,7.8
2017-02-20T06:06:08.763Z,7.7
2017-02-20T06:07:09.459Z,7.61
2017-02-20T06:08:10.182Z,7.67
2017-02-20T06:09:10.874Z,7.67
2017-02-20T06:10:11.579Z,7.58
2017-02-20T06:11:12.297Z,7.69
2017-02-20T06:12:13.058Z,7.66
2017-02-20T06:13:13.745Z,7.76
2017-02-20T06:14:14.457Z,7.75
2017-02-20T06:15:15.141Z,7.76
2017-02-20T06:16:15.837Z,7.79
2017-02-20T06:17:16.558Z,7.63
2017-02-20T06:18:17.255Z,7.8
2017-02-20T06:19:17.980Z,7.75
2017-02-20T06:20:18.653Z,7.77
2017-02-20T06:21:19.360Z,7.75
2017-02-20T06:22:20.088Z,7.73
2017-02-20T06:23:20.829Z,7.79
2017-02-20T06:24:21.515Z,7.75
2017-02-20T06:25:22.217Z,7.75
2017-02-20T06:26:22.937Z,7.73
2017-02-20T06:27:23.655Z,7.75
2017-02-20T06:28:24.336Z,7.85
2017-02-20T06:29:25.025Z,7.82
2017-02-20T06:30:25.768Z,8
2017-02-20T06:31:26.449Z,8
2017-02-20T06:32:27.168Z,7.98
2017-02-20T06:33:27.858Z,8
2017-02-20T06:34:28.598Z,8.03
2017-02-20T06:35:29.326Z,8.1
2017-02-20T06:36:30.014Z,8.05
2017-02-20T06:37:30.737Z,8.06
2017-02-20T06:38:31.449Z,8.09
2017-02-20T06:39:32.155Z,8.03
2017-02-20T06:40:32.856Z,7.98
2017-02-20T06:41:33.547Z,8
2017-02-20T06:42:34.247Z,8.08
2017-02-20T06:43:34.977Z,8.06
2017-02-20T06:44:35.648Z,8
2017-02-20T06:45:36.327Z,7.98
2017-02-20T06:46:37.019Z,7.98
2017-02-20T06:47:37.715Z,8
2017-02-20T06:48:38.461Z,8
2017-02-20T06:49:39.161Z,8.03
2017-02-20T06:50:39.842Z,8.01
2017-02-20T06:51:40.546Z,8
2017-02-20T06:52:41.229Z,8.03
2017-02-20T06:53:41.952Z,8.05
2017-02-20T06:54:42.633Z,8
2017-02-20T06:55:43.334Z,8
2017-02-20T06:56:44.018Z,8.03
2017-02-20T06:57:44.702Z,7.93
2017-02-20T06:58:45.398Z,8.01
2017-02-20T06:59:46.092Z,7.97
2017-02-20T07:00:46.780Z,7.97
2017-02-20T07:01:47.458Z,8
2017-02-20T07:02:48.139Z,8
2017-02-20T07:03:48.822Z,7.95
2017-02-20T07:04:49.508Z,7.94
2017-02-20T07:05:50.194Z,7.95
2017-02-20T07:06:50.899Z,8.05
2017-02-20T07:07:51.578Z,7.97
2017-02-20T07:08:52.249Z,7.94
2017-02-20T07:09:52.925Z,8.08
2017-02-20T07:10:53.646Z,7.97
2017-02-20T07:11:54.323Z,8
2017-02-20T07:12:54.991Z,7.98
2017-02-20T07:13:55.684Z,7.97
2017-02-20T07:14:56.383Z,7.97
2017-02-20T07:15:57.080Z,8.03
2017-02-20T07:16:57.784Z,8.09
2017-02-20T07:17:58.493Z,8.06
2017-02-20T07:18:59.219Z,8.09
2017-02-20T07:19:59.932Z,8.05
2017-02-20T07:21:00.633Z,8.13
2017-02-20T07:22:01.349Z,8.23
2017-02-20T07:23:02.049Z,8.26
2017-02-20T07:24:02.743Z,8.28
2017-02-20T07:25:03.453Z,8.33
2017-02-20T07:26:04.136Z,8.24
2017-02-20T07:27:04.834Z,8.28
2017-02-20T07:28:05.524Z,8.23
2017-02-20T07:29:06.222Z,8.23
2017-02-20T07:30:06.955Z,8.2
2017-02-20T07:31:07.650Z,8.1
2017-02-20T07:32:08.348Z,8.15
2017-02-20T07:33:09.041Z,8.1
2017-02-20T07:34:09.744Z,8.12
2017-02-20T07:35:10.448Z,8.13
2017-02-20T07:36:11.161Z,8.09
2017-02-20T07:37:11.885Z,8.12
2017-02-20T07:38:12.570Z,8.16
2017-02-20T07:39:13.288Z,8.24
2017-02-20T07:40:14.001Z,8.23
2017-02-20T07:41:14.681Z,8.13
2017-02-20T07:42:15.375Z,8.18
2017-02-20T07:43:16.077Z,8.24
2017-02-20T07:44:16.770Z,8.23
2017-02-20T07:45:17.478Z,8.24
2017-02-20T07:46:18.197Z,8.23
2017-02-20T07:47:18.896Z,8.31
2017-02-20T07:48:19.605Z,8.26
2017-02-20T07:49:20.347Z,8.26
2017-02-20T07:50:21.078Z,8.24
2017-02-20T07:51:21.769Z,8.27
2017-02-20T07:52:22.481Z,8.3
2017-02-20T07:53:23.216Z,8.28
2017-02-20T07:54:23.914Z,8.26
2017-02-20T07:55:24.638Z,8.28
2017-02-20T07:56:25.345Z,8.31
2017-02-20T07:57:26.075Z,8.31
2017-02-20T07:58:26.759Z,8.27
2017-02-20T07:59:27.474Z,8.28
2017-02-20T08:00:28.170Z,8.26
2017-02-20T08:01:28.872Z,8.24
2017-02-20T08:02:29.628Z,8.31
2017-02-20T08:03:30.324Z,8.28
2017-02-20T08:04:31.059Z,8.33
2017-02-20T08:05:31.779Z,8.33
2017-02-20T08:06:32.463Z,8.19
2017-02-20T08:07:33.170Z,8.18
2017-02-20T08:08:33.861Z,8.13
2017-02-20T08:09:34.559Z,8.06
2017-02-20T08:10:35.252Z,8.13
2017-02-20T08:11:35.965Z,8.19
2017-02-20T08:12:36.673Z,8.15
2017-02-20T08:13:37.351Z,8.15
2017-02-20T08:14:38.028Z,8.12
2017-02-20T08:15:38.795Z,8.19
2017-02-20T08:16:39.526Z,8.1
2017-02-20T08:17:40.253Z,8.18
2017-02-20T08:18:40.956Z,8.16
2017-02-20T08:19:41.644Z,8.13
2017-02-20T08:20:42.397Z,8.13
2017-02-20T08:21:43.110Z,8.1
2017-02-20T08:22:43.831Z,8.1
2017-02-20T08:23:44.533Z,8.08
2017-02-20T08:24:45.276Z,8.05
2017-02-20T08:25:45.989Z,8.13
2017-02-20T08:26:46.713Z,8.1
2017-02-20T08:27:47.435Z,8.08
2017-02-20T08:28:48.158Z,8.08
2017-02-20T08:29:48.842Z,8.03
2017-02-20T08:30:49.547Z,8.03
2017-02-20T08:31:50.292Z,8.12
2017-02-20T08:32:50.999Z,8.05
2017-02-20T08:33:51.706Z,8.05
2017-02-20T08:34:52.408Z,8.06
2017-02-20T08:35:53.119Z,8.08
2017-02-20T08:36:53.809Z,8.1
2017-02-20T08:37:54.508Z,8.08
2017-02-20T08:38:55.190Z,8.09
2017-02-20T08:39:55.884Z,8.08
2017-02-20T08:40:56.585Z,8.08
2017-02-20T08:41:57.290Z,8.08
2017-02-20T08:42:57.976Z,8.06
2017-02-20T08:43:58.689Z,8.06
2017-02-20T08:44:59.384Z,7.97
2017-02-20T08:46:00.094Z,8.09
2017-02-20T08:47:00.812Z,8.03
2017-02-20T08:48:01.501Z,8.05
2017-02-20T08:49:02.184Z,8.08
2017-02-20T08:50:02.917Z,8.03
2017-02-20T08:51:03.611Z,8.01
2017-02-20T08:52:04.332Z,8
2017-02-20T08:53:05.042Z,8.09
2017-02-20T08:54:05.752Z,8.08
2017-02-20T08:55:06.522Z,8.13
2017-02-20T08:56:07.222Z,8.05
2017-02-20T08:57:07.950Z,8.09
2017-02-20T08:58:08.677Z,8.13
2017-02-20T08:59:09.390Z,8.15
2017-02-20T09:00:10.113Z,8.12
2017-02-20T09:01:10.828Z,8.24
2017-02-20T09:02:11.517Z,8.23
2017-02-20T09:03:12.230Z,8.19
2017-02-20T09:04:12.931Z,8.16
2017-02-20T09:05:13.638Z,8.26
2017-02-20T09:06:14.311Z,8.28
2017-02-20T09:07:15.012Z,8.28
2017-02-20T09:08:15.701Z,8.27
2017-02-20T09:09:16.434Z,8.26
2017-02-20T09:10:17.175Z,8.28
2017-02-20T09:11:17.895Z,8.34
2017-02-20T09:12:18.604Z,8.33
2017-02-20T09:13:19.314Z,8.3
2017-02-20T09:14:20.019Z,8.31
2017-02-20T09:15:20.702Z,8.26
2017-02-20T09:16:21.381Z,8.28
2017-02-20T09:17:22.065Z,8.3
2017-02-20T09:18:22.776Z,8.26
2017-02-20T09:19:23.463Z,8.27
2017-02-20T09:20:24.171Z,8.28
2017-02-20T09:21:24.868Z,8.3
2017-02-20T09:22:25.564Z,8.28
2017-02-20T09:23:26.299Z,8.31
2017-02-20T09:24:26.999Z,8.28
2017-02-20T09:25:27.716Z,8.27
2017-02-20T09:26:28.416Z,8.27
2017-02-20T09:27:29.113Z,8.31
2017-02-20T09:28:29.801Z,8.27
2017-02-20T09:29:30.538Z,8.28
2017-02-20T09:30:31.236Z,8.33
2017-02-20T09:31:31.948Z,8.27
2017-02-20T09:32:32.626Z,8.28
2017-02-20T09:33:33.309Z,8.26
2017-02-20T09:34:33.998Z,8.26
2017-02-20T09:35:34.691Z,8.28
2017-02-20T09:36:35.436Z,8.3
2017-02-20T09:37:36.143Z,8.33
2017-02-20T09:38:36.845Z,8.36
2017-02-20T09:39:37.538Z,8.37
2017-02-20T09:40:38.245Z,8.37
2017-02-20T09:41:38.925Z,8.31
2017-02-20T09:42:39.674Z,8.44
2017-02-20T09:43:40.373Z,8.34
2017-02-20T09:44:41.123Z,8.31
2017-02-20T09:45:41.815Z,8.31
2017-02-20T09:46:42.541Z,8.3
2017-02-20T09:47:43.262Z,8.33
2017-02-20T09:48:43.963Z,8.31
2017-02-20T09:49:44.657Z,8.33
2017-02-20T09:50:45.333Z,8.34
2017-02-20T09:51:46.047Z,8.31
2017-02-20T09:52:46.769Z,8.38
2017-02-20T09:53:47.482Z,8.37
2017-02-20T09:54:48.175Z,8.38
2017-02-20T09:55:48.892Z,8.44
2017-02-20T09:56:49.634Z,8.42
2017-02-20T09:57:50.358Z,8.33
2017-02-20T09:58:51.077Z,8.38
2017-02-20T09:59:51.755Z,8.42
2017-02-20T10:00:52.471Z,8.41
2017-02-20T10:01:53.150Z,8.41
2017-02-20T10:02:53.850Z,8.38
2017-02-20T10:03:54.559Z,8.38
2017-02-20T10:04:55.268Z,8.41
2017-02-20T10:05:55.983Z,8.38
2017-02-20T10:06:56.741Z,8.42
2017-02-20T10:07:57.418Z,8.37
2017-02-20T10:08:58.105Z,8.48
2017-02-20T10:09:58.812Z,8.48
2017-02-20T10:10:59.516Z,8.46
2017-02-20T10:12:00.241Z,8.45
2017-02-20T10:13:00.943Z,8.49
2017-02-20T10:14:01.681Z,8.48
2017-02-20T10:15:02.377Z,8.48
2017-02-20T10:16:03.056Z,8.49
2017-02-20T10:17:03.731Z,8.53
2017-02-20T10:18:04.416Z,8.51
2017-02-20T10:19:05.116Z,8.51
2017-02-20T10:20:05.862Z,8.49
2017-02-20T10:21:06.562Z,8.49
2017-02-20T10:22:07.255Z,8.55
2017-02-20T10:23:07.926Z,8.46
2017-02-20T10:24:08.662Z,8.49
2017-02-20T10:25:09.370Z,8.53
2017-02-20T10:26:10.044Z,8.51
2017-02-20T10:27:10.759Z,8.58
2017-02-20T10:28:11.450Z,8.53
2017-02-20T10:29:12.167Z,8.58
2017-02-20T10:30:12.884Z,8.6
2017-02-20T10:31:13.599Z,8.6
2017-02-20T10:32:14.266Z,8.58
2017-02-20T10:33:14.950Z,8.61
2017-02-20T10:34:15.643Z,8.66
2017-02-20T10:35:16.336Z,8.64
2017-02-20T10:36:17.022Z,8.64
2017-02-20T10:37:17.739Z,8.67
2017-02-20T10:38:18.506Z,8.64
2017-02-20T10:39:19.223Z,8.63
2017-02-20T10:40:19.909Z,8.66
2017-02-20T10:41:20.618Z,8.64
2017-02-20T10:42:21.314Z,8.73
2017-02-20T10:43:22.012Z,8.71
2017-02-20T10:44:22.718Z,8.69
2017-02-20T10:45:23.424Z,8.74
2017-02-20T10:46:24.139Z,8.74
2017-02-20T10:47:24.855Z,8.74
2017-02-20T10:48:25.538Z,8.71
2017-02-20T10:49:26.276Z,8.69
2017-02-20T10:50:26.963Z,8.71
2017-02-20T10:51:27.707Z,8.7
2017-02-20T10:52:28.429Z,8.73
2017-02-20T10:53:29.114Z,8.74
2017-02-20T10:54:29.879Z,8.69
2017-02-20T10:55:30.575Z,8.73
2017-02-20T10:56:31.289Z,8.79
2017-02-20T10:57:32.032Z,8.84
2017-02-20T10:58:32.721Z,8.84
2017-02-20T10:59:33.422Z,8.79
2017-02-20T11:00:34.126Z,8.81
2017-02-20T11:01:34.809Z,8.79
2017-02-20T11:02:35.507Z,8.84
2017-02-20T11:03:36.187Z,8.78
2017-02-20T11:04:36.884Z,8.82
2017-02-20T11:05:37.584Z,8.84
2017-02-20T11:06:38.275Z,8.79
2017-02-20T11:07:38.974Z,8.87
2017-02-20T11:08:39.668Z,8.82
2017-02-20T11:09:40.377Z,8.84
2017-02-20T11:10:41.074Z,8.89
2017-02-20T11:11:41.765Z,8.78
2017-02-20T11:12:42.514Z,8.89
2017-02-20T11:13:43.263Z,8.85
2017-02-20T11:14:44.012Z,8.91
2017-02-20T11:15:44.716Z,8.89
2017-02-20T11:16:45.388Z,8.85
2017-02-20T11:17:46.095Z,8.92
2017-02-20T11:18:46.790Z,8.84
2017-02-20T11:19:47.653Z,8.92
2017-02-20T11:20:48.332Z,8.99
2017-02-20T11:21:49.060Z,9.04
2017-02-20T11:22:49.791Z,9
2017-02-20T11:23:50.504Z,8.89
2017-02-20T11:24:51.234Z,8.97
2017-02-20T11:25:51.944Z,8.89
2017-02-20T11:26:52.692Z,8.94
2017-02-20T11:27:53.436Z,8.99
2017-02-20T11:28:54.141Z,8.99
2017-02-20T11:29:54.845Z,8.99
2017-02-20T11:30:55.546Z,9.02
2017-02-20T11:31:56.314Z,9.08
2017-02-20T11:32:57.040Z,8.97
2017-02-20T11:33:57.753Z,9.02
2017-02-20T11:34:58.495Z,9.04
2017-02-20T11:35:59.215Z,9.03
2017-02-20T11:36:59.918Z,9.03
2017-02-20T11:38:00.639Z,9.04
2017-02-20T11:39:01.377Z,9.02
2017-02-20T11:40:02.096Z,9.08
2017-02-20T11:41:02.810Z,9.11
2017-02-20T11:42:03.607Z,9
2017-02-20T11:43:04.307Z,9.04
2017-02-20T11:44:05.009Z,9.08
2017-02-20T11:45:05.725Z,9.03
2017-02-20T11:46:06.413Z,9.02
2017-02-20T11:47:07.129Z,9.06
2017-02-20T11:48:07.819Z,9.06
2017-02-20T11:49:08.524Z,9.1
2017-02-20T11:50:09.210Z,9.13
2017-02-20T11:51:09.939Z,9.1
2017-02-20T11:52:10.649Z,9.08
2017-02-20T11:53:11.360Z,9.13
2017-02-20T11:54:12.089Z,9.21
2017-02-20T11:55:12.774Z,9.19
2017-02-20T11:56:13.481Z,9.18
2017-02-20T11:57:14.195Z,9.23
2017-02-20T11:58:14.937Z,9.22
2017-02-20T11:59:15.649Z,9.25
2017-02-20T12:00:16.336Z,9.19
2017-02-20T12:01:17.034Z,9.25
2017-02-20T12:02:17.718Z,9.18
2017-02-20T12:03:18.393Z,9.32
2017-02-20T12:04:19.092Z,9.26
2017-02-20T12:05:19.805Z,9.39
2017-02-20T12:06:20.490Z,9.37
2017-02-20T12:07:21.184Z,9.32
2017-02-20T12:08:21.882Z,9.32
2017-02-20T12:09:22.581Z,9.39
2017-02-20T12:10:23.285Z,9.41
2017-02-20T12:11:23.990Z,9.36
2017-02-20T12:12:24.695Z,9.39
2017-02-20T12:13:25.413Z,9.44
2017-02-20T12:14:26.101Z,9.46
2017-02-20T12:15:26.814Z,9.44
2017-02-20T12:16:27.496Z,9.37
2017-02-20T12:17:28.198Z,9.44
2017-02-20T12:18:28.931Z,9.37
2017-02-20T12:19:29.626Z,9.34
2017-02-20T12:20:30.355Z,9.37
2017-02-20T12:21:31.055Z,9.32
2017-02-20T12:22:31.753Z,9.4
2017-02-20T12:23:32.469Z,9.41
2017-02-20T12:24:33.200Z,9.44
2017-02-20T12:25:33.920Z,9.36
2017-02-20T12:26:34.660Z,9.39
2017-02-20T12:27:35.368Z,9.43
2017-02-20T12:28:36.083Z,9.36
2017-02-20T12:29:36.795Z,9.37
2017-02-20T12:30:37.485Z,9.39
2017-02-20T12:31:38.226Z,9.39
2017-02-20T12:32:38.921Z,9.39
2017-02-20T12:33:39.627Z,9.32
2017-02-20T12:34:40.357Z,9.36
2017-02-20T12:35:41.072Z,9.28
2017-02-20T12:36:41.789Z,9.37
2017-02-20T12:37:42.495Z,9.4
2017-02-20T12:38:43.213Z,9.36
2017-02-20T12:39:43.942Z,9.39
2017-02-20T12:40:44.630Z,9.41
2017-02-20T12:41:45.339Z,9.34
2017-02-20T12:42:46.060Z,9.41
2017-02-20T12:43:46.770Z,9.34
2017-02-20T12:44:47.469Z,9.36
2017-02-20T12:45:48.171Z,9.36
2017-02-20T12:46:48.886Z,9.5
2017-02-20T12:47:49.568Z,9.58
2017-02-20T12:48:50.265Z,9.5
2017-02-20T12:49:50.969Z,9.51
2017-02-20T12:50:51.701Z,9.51
2017-02-20T12:51:52.414Z,9.54
2017-02-20T12:52:53.148Z,9.51
2017-02-20T12:53:53.869Z,9.51
2017-02-20T12:54:54.573Z,9.48
2017-02-20T12:55:55.271Z,9.46
2017-02-20T12:56:55.978Z,9.43
2017-02-20T12:57:56.680Z,9.44
2017-02-20T12:58:57.374Z,9.48
2017-02-20T12:59:58.082Z,9.5
2017-02-20T13:00:58.784Z,9.5
2017-02-20T13:01:59.487Z,9.5
2017-02-20T13:03:00.181Z,9.48
2017-02-20T13:04:00.894Z,9.51
2017-02-20T13:05:01.588Z,9.48
2017-02-20T13:06:02.287Z,9.5
2017-02-20T13:07:03.003Z,9.54
2017-02-20T13:08:03.718Z,9.51
2017-02-20T13:09:04.408Z,9.5
2017-02-20T13:10:05.132Z,9.5
2017-02-20T13:11:05.837Z,9.5
2017-02-20T13:12:06.528Z,9.5
2017-02-20T13:13:07.234Z,9.48
2017-02-20T13:14:07.924Z,9.5
2017-02-20T13:15:08.629Z,9.48
2017-02-20T13:16:09.315Z,9.5
2017-02-20T13:17:10.030Z,9.55
2017-02-20T13:18:10.730Z,9.47
2017-02-20T13:19:11.451Z,9.58
2017-02-20T13:20:12.144Z,9.64
2017-02-20T13:21:12.861Z,9.61
2017-02-20T13:22:13.561Z,9.64
2017-02-20T13:23:14.273Z,9.68
2017-02-20T13:24:14.980Z,9.62
2017-02-20T13:25:15.682Z,9.68
2017-02-20T13:26:16.376Z,9.62
2017-02-20T13:27:17.070Z,9.59
2017-02-20T13:28:17.778Z,9.68
2017-02-20T13:29:18.496Z,9.62
2017-02-20T13:30:19.197Z,9.65
2017-02-20T13:31:19.915Z,9.69
2017-02-20T13:32:20.672Z,9.65